Time,TemperatureF,DewpointF,PressureIn,WindDirection,WindDirectionDegrees,WindSpeedMPH,WindSpeedGustMPH,Humidity,HourlyPrecipIn,Conditions,Clouds,dailyrainin,SoftwareType,DateUTC
2013-03-12 00:10:00,59.0,52.1,29.94,West,281,0.0,0.0,78,0.00,,,0.00,Wunderground v.1.15,2013-03-12 04:10:00,
2013-03-12 00:20:00,59.0,52.1,29.94,West,281,0.0,1.0,78,0.00,,,0.00,Wunderground v.1.15,2013-03-12 04:20:00,
2013-03-12 00:30:00,59.0,52.1,29.93,West,277,0.0,0.0,78,0.00,,,0.00,Wunderground v.1.15,2013-03-12 04:30:00,
2013-03-12 00:40:00,59.0,52.5,29.92,North,10,0.0,0.0,79,0.00,,,0.00,Wunderground v.1.15,2013-03-12 04:40:00,
2013-03-12 00:49:00,59.0,52.5,29.92,WNW,302,0.0,0.0,79,0.00,,,0.00,Wunderground v.1.15,2013-03-12 04:49:00,
2013-03-12 01:00:00,59.0,52.8,29.91,East,82,1.0,1.0,80,0.00,,,0.00,Wunderground v.1.15,2013-03-12 05:00:00,
2013-03-12 01:10:00,59.0,52.8,29.91,ENE,64,1.0,1.0,80,0.00,,,0.00,Wunderground v.1.15,2013-03-12 05:10:00,
2013-03-12 01:20:00,58.9,52.7,29.90,ENE,61,0.0,0.0,80,0.00,,,0.00,Wunderground v.1.15,2013-03-12 05:20:00,
2013-03-12 01:30:00,58.8,52.6,29.90,East,86,0.0,1.0,80,0.00,,,0.00,Wunderground v.1.15,2013-03-12 05:30:00,
2013-03-12 01:40:00,58.7,52.9,29.90,WNW,294,0.0,0.0,81,0.00,,,0.00,Wunderground v.1.15,2013-03-12 05:40:00,
2013-03-12 01:49:00,58.7,52.9,29.89,NE,48,0.0,0.0,81,0.00,,,0.00,Wunderground v.1.15,2013-03-12 05:49:00,
2013-03-12 02:00:00,58.7,53.2,29.89,West,259,1.0,1.0,82,0.00,,,0.00,Wunderground v.1.15,2013-03-12 06:00:00,
2013-03-12 02:10:00,58.4,53.6,29.88,ENE,59,1.0,1.0,84,0.00,,,0.00,Wunderground v.1.15,2013-03-12 06:10:00,
2013-03-12 02:20:00,58.1,53.6,29.89,NE,56,1.0,1.0,85,0.00,,,0.01,Wunderground v.1.15,2013-03-12 06:20:00,
2013-03-12 02:30:00,57.8,53.6,29.88,ENE,72,1.0,1.0,86,0.00,,,0.01,Wunderground v.1.15,2013-03-12 06:30:00,
2013-03-12 02:39:00,57.5,53.7,29.87,East,80,0.0,0.0,87,0.00,,,0.01,Wunderground v.1.15,2013-03-12 06:39:00,
2013-03-12 02:50:00,57.4,53.6,29.86,NNW,334,1.0,1.0,87,0.00,,,0.02,Wunderground v.1.15,2013-03-12 06:50:00,
2013-03-12 03:00:00,57.2,53.7,29.86,NW,304,1.0,1.0,88,0.00,,,0.02,Wunderground v.1.15,2013-03-12 07:00:00,
2013-03-12 03:09:00,57.1,53.6,29.86,SW,221,1.0,1.0,88,0.00,,,0.03,Wunderground v.1.15,2013-03-12 07:09:00,
2013-03-12 03:20:00,57.0,53.8,29.85,SSE,165,1.0,1.0,89,0.07,,,0.04,Wunderground v.1.15,2013-03-12 07:20:00,
2013-03-12 03:29:00,56.9,53.7,29.85,SW,228,1.0,1.0,89,0.06,,,0.05,Wunderground v.1.15,2013-03-12 07:29:00,
2013-03-12 03:40:00,56.9,54.0,29.84,SW,221,1.0,1.0,90,0.06,,,0.06,Wunderground v.1.15,2013-03-12 07:40:00,
2013-03-12 03:50:00,56.8,53.9,29.84,NE,46,0.0,1.0,90,0.06,,,0.07,Wunderground v.1.15,2013-03-12 07:50:00,
2013-03-12 03:59:00,56.8,53.9,29.84,NE,36,0.0,0.0,90,0.06,,,0.08,Wunderground v.1.15,2013-03-12 07:59:00,
2013-03-12 04:10:00,56.8,53.9,29.83,SSW,209,1.0,1.0,90,0.05,,,0.09,Wunderground v.1.15,2013-03-12 08:10:00,
2013-03-12 04:20:00,56.7,54.1,29.83,SW,231,0.0,0.0,91,0.09,,,0.09,Wunderground v.1.15,2013-03-12 08:20:00,
2013-03-12 04:30:00,56.7,54.1,29.83,SW,219,1.0,1.0,91,0.11,,,0.11,Wunderground v.1.15,2013-03-12 08:30:00,
2013-03-12 04:40:00,56.8,54.2,29.82,SW,219,0.0,0.0,91,0.05,,,0.12,Wunderground v.1.15,2013-03-12 08:40:00,
2013-03-12 04:49:00,57.0,54.4,29.82,SSE,168,1.0,1.0,91,0.06,,,0.13,Wunderground v.1.15,2013-03-12 08:49:00,
2013-03-12 05:00:00,57.1,54.5,29.82,WNW,284,1.0,1.0,91,0.36,,,0.17,Wunderground v.1.15,2013-03-12 09:00:00,
2013-03-12 05:10:00,57.2,54.9,29.81,SSW,210,0.0,2.0,92,0.07,,,0.19,Wunderground v.1.15,2013-03-12 09:10:00,
2013-03-12 05:19:00,57.4,55.1,29.80,NE,56,1.0,1.0,92,0.41,,,0.21,Wunderground v.1.15,2013-03-12 09:19:00,
2013-03-12 05:30:00,57.7,55.4,29.80,NW,311,1.0,1.0,92,0.09,,,0.22,Wunderground v.1.15,2013-03-12 09:30:00,
2013-03-12 05:40:00,57.8,55.5,29.80,SW,214,1.0,1.0,92,0.17,,,0.24,Wunderground v.1.15,2013-03-12 09:40:00,
2013-03-12 05:50:00,58.0,55.7,29.80,WSW,250,1.0,1.0,92,0.07,,,0.25,Wunderground v.1.15,2013-03-12 09:50:00,
2013-03-12 06:00:00,58.2,55.9,29.79,SW,222,1.0,1.0,92,0.07,,,0.27,Wunderground v.1.15,2013-03-12 10:00:00,
2013-03-12 06:10:00,58.3,56.3,29.78,SW,227,1.0,1.0,93,0.08,,,0.28,Wunderground v.1.15,2013-03-12 10:10:00,
2013-03-12 06:19:00,58.4,56.4,29.78,SSW,193,1.0,1.0,93,0.05,,,0.28,Wunderground v.1.15,2013-03-12 10:19:00,
2013-03-12 06:30:00,58.5,56.5,29.78,SW,217,0.0,1.0,93,0.00,,,0.29,Wunderground v.1.15,2013-03-12 10:30:00,
2013-03-12 06:40:00,58.7,56.7,29.78,WSW,237,0.0,0.0,93,0.00,,,0.29,Wunderground v.1.15,2013-03-12 10:40:00,
2013-03-12 06:49:00,59.0,57.0,29.77,SSW,206,1.0,1.0,93,0.00,,,0.29,Wunderground v.1.15,2013-03-12 10:49:00,
2013-03-12 07:00:00,59.0,57.0,29.77,West,264,1.0,1.0,93,0.00,,,0.29,Wunderground v.1.15,2013-03-12 11:00:00,
2013-03-12 07:09:00,59.0,57.0,29.77,SSW,210,2.0,6.0,93,0.00,,,0.30,Wunderground v.1.15,2013-03-12 11:09:00,
2013-03-12 07:20:00,59.4,57.4,29.78,SW,222,3.0,3.0,93,0.12,,,0.33,Wunderground v.1.15,2013-03-12 11:20:00,
2013-03-12 07:30:00,59.5,57.5,29.77,SSW,195,2.0,6.0,93,0.09,,,0.34,Wunderground v.1.15,2013-03-12 11:30:00,
2013-03-12 07:40:00,59.6,57.6,29.78,SSW,196,2.0,2.0,93,0.04,,,0.35,Wunderground v.1.15,2013-03-12 11:40:00,
2013-03-12 07:49:00,59.5,57.5,29.78,SSW,207,3.0,4.0,93,0.20,,,0.38,Wunderground v.1.15,2013-03-12 11:49:00,
2013-03-12 08:00:00,59.3,57.3,29.78,WSW,242,2.0,2.0,93,0.12,,,0.40,Wunderground v.1.15,2013-03-12 12:00:00,
2013-03-12 08:10:00,59.0,57.0,29.78,SSW,210,3.0,3.0,93,0.08,,,0.41,Wunderground v.1.15,2013-03-12 12:10:00,
2013-03-12 08:20:00,59.0,57.0,29.78,SSW,211,2.0,3.0,93,0.17,,,0.43,Wunderground v.1.15,2013-03-12 12:20:00,
2013-03-12 08:30:00,59.0,57.0,29.78,SW,219,2.0,2.0,93,0.14,,,0.47,Wunderground v.1.15,2013-03-12 12:30:00,
2013-03-12 08:40:00,59.0,57.0,29.79,SW,219,2.0,2.0,93,0.06,,,0.48,Wunderground v.1.15,2013-03-12 12:40:00,
2013-03-12 08:49:00,59.0,57.0,29.79,SSW,206,2.0,3.0,93,0.13,,,0.50,Wunderground v.1.15,2013-03-12 12:49:00,
2013-03-12 09:00:00,59.0,57.0,29.79,SW,215,1.0,3.0,93,0.08,,,0.52,Wunderground v.1.15,2013-03-12 13:00:00,
2013-03-12 09:10:00,59.0,57.0,29.80,SW,227,2.0,3.0,93,0.15,,,0.54,Wunderground v.1.15,2013-03-12 13:10:00,
2013-03-12 09:19:00,59.2,57.2,29.80,SSW,205,2.0,3.0,93,0.09,,,0.55,Wunderground v.1.15,2013-03-12 13:19:00,
2013-03-12 09:30:00,59.4,57.7,29.80,WSW,243,3.0,3.0,94,0.00,,,0.55,Wunderground v.1.15,2013-03-12 13:30:00,
2013-03-12 09:40:00,59.6,57.9,29.80,SW,234,2.0,2.0,94,0.00,,,0.55,Wunderground v.1.15,2013-03-12 13:40:00,
2013-03-12 09:50:00,59.7,58.0,29.80,SW,224,2.0,2.0,94,0.00,,,0.55,Wunderground v.1.15,2013-03-12 13:50:00,
2013-03-12 10:00:00,59.9,57.9,29.80,SW,223,2.0,2.0,93,0.00,,,0.55,Wunderground v.1.15,2013-03-12 14:00:00,
2013-03-12 10:10:00,60.0,58.0,29.80,SSW,209,2.0,3.0,93,0.00,,,0.55,Wunderground v.1.15,2013-03-12 14:10:00,
2013-03-12 10:20:00,60.2,58.2,29.80,WSW,246,2.0,5.0,93,0.00,,,0.55,Wunderground v.1.15,2013-03-12 14:20:00,
2013-03-12 10:30:00,60.4,58.4,29.80,SSW,199,2.0,2.0,93,0.00,,,0.55,Wunderground v.1.15,2013-03-12 14:30:00,
2013-03-12 10:40:00,60.6,58.6,29.80,SW,226,2.0,3.0,93,0.00,,,0.55,Wunderground v.1.15,2013-03-12 14:40:00,
2013-03-12 10:49:00,60.7,58.4,29.80,SW,228,2.0,2.0,92,0.00,,,0.55,Wunderground v.1.15,2013-03-12 14:49:00,
2013-03-12 11:00:00,61.0,58.7,29.80,SW,230,2.0,2.0,92,0.00,,,0.55,Wunderground v.1.15,2013-03-12 15:00:00,
2013-03-12 11:09:00,61.1,58.8,29.80,SSW,211,2.0,2.0,92,0.00,,,0.55,Wunderground v.1.15,2013-03-12 15:09:00,
2013-03-12 11:20:00,61.4,59.1,29.80,SW,236,2.0,3.0,92,0.00,,,0.55,Wunderground v.1.15,2013-03-12 15:20:00,
2013-03-12 11:30:00,61.7,59.4,29.81,WSW,238,2.0,2.0,92,0.00,,,0.55,Wunderground v.1.15,2013-03-12 15:30:00,
2013-03-12 11:39:00,61.8,59.1,29.81,SW,226,3.0,3.0,91,0.00,,,0.55,Wunderground v.1.15,2013-03-12 15:39:00,
2013-03-12 11:50:00,61.9,59.2,29.81,SW,236,2.0,2.0,91,0.00,,,0.55,Wunderground v.1.15,2013-03-12 15:50:00,
2013-03-12 12:00:00,62.3,59.6,29.81,SW,221,2.0,2.0,91,0.00,,,0.55,Wunderground v.1.15,2013-03-12 16:00:00,
2013-03-12 12:09:00,62.9,59.6,29.81,SSW,211,3.0,3.0,89,0.00,,,0.55,Wunderground v.1.15,2013-03-12 16:09:00,
2013-03-12 12:20:00,64.2,60.9,29.81,WSW,257,2.0,8.0,89,0.00,,,0.55,Wunderground v.1.15,2013-03-12 16:20:00,
2013-03-12 12:29:00,64.4,60.1,29.81,SSW,211,3.0,3.0,86,0.00,,,0.55,Wunderground v.1.15,2013-03-12 16:29:00,
2013-03-12 12:40:00,63.7,58.8,29.81,North,11,2.0,4.0,84,0.00,,,0.55,Wunderground v.1.15,2013-03-12 16:40:00,
2013-03-12 12:50:00,61.9,57.3,29.81,NNW,333,2.0,2.0,85,0.00,,,0.55,Wunderground v.1.15,2013-03-12 16:50:00,
2013-03-12 12:59:00,61.4,57.2,29.82,NW,306,2.0,2.0,86,0.00,,,0.55,Wunderground v.1.15,2013-03-12 16:59:00,
2013-03-12 13:10:00,61.8,57.6,29.81,SW,230,1.0,2.0,86,0.00,,,0.55,Wunderground v.1.15,2013-03-12 17:10:00,
2013-03-12 13:20:00,62.7,58.5,29.81,SW,234,2.0,2.0,86,0.00,,,0.55,Wunderground v.1.15,2013-03-12 17:20:00,
2013-03-12 13:29:00,63.3,58.0,29.81,SSW,196,2.0,2.0,83,0.00,,,0.55,Wunderground v.1.15,2013-03-12 17:29:00,
2013-03-12 13:40:00,63.4,58.1,29.80,WNW,295,2.0,2.0,83,0.00,,,0.55,Wunderground v.1.15,2013-03-12 17:40:00,
2013-03-12 13:50:00,63.1,57.5,29.81,WNW,303,3.0,3.0,82,0.00,,,0.55,Wunderground v.1.15,2013-03-12 17:50:00,
2013-03-12 14:00:00,62.0,56.4,29.80,NW,311,3.0,3.0,82,0.00,,,0.55,Wunderground v.1.15,2013-03-12 18:00:00,
2013-03-12 14:10:00,62.2,56.6,29.79,NNW,346,2.0,2.0,82,0.00,,,0.55,Wunderground v.1.15,2013-03-12 18:10:00,
2013-03-12 14:20:00,62.7,57.1,29.79,SSE,159,3.0,3.0,82,0.00,,,0.55,Wunderground v.1.15,2013-03-12 18:20:00,
2013-03-12 14:30:00,63.5,57.2,29.79,WNW,300,2.0,2.0,80,0.00,,,0.55,Wunderground v.1.15,2013-03-12 18:30:00,
2013-03-12 14:39:00,63.8,57.2,29.78,North,360,3.0,3.0,79,0.00,,,0.55,Wunderground v.1.15,2013-03-12 18:39:00,
2013-03-12 14:50:00,64.3,57.3,29.78,NNE,15,3.0,3.0,78,0.00,,,0.55,Wunderground v.1.15,2013-03-12 18:50:00,
2013-03-12 15:00:00,65.2,57.4,29.77,SW,232,2.0,2.0,76,0.00,,,0.55,Wunderground v.1.15,2013-03-12 19:00:00,
2013-03-12 15:09:00,65.8,57.7,29.77,WSW,254,2.0,2.0,75,0.00,,,0.55,Wunderground v.1.15,2013-03-12 19:09:00,
2013-03-12 15:20:00,65.7,56.8,29.77,NW,319,3.0,3.0,73,0.00,,,0.55,Wunderground v.1.15,2013-03-12 19:20:00,
2013-03-12 15:29:00,65.5,57.0,29.77,NNW,338,1.0,1.0,74,0.00,,,0.55,Wunderground v.1.15,2013-03-12 19:29:00,
2013-03-12 15:40:00,65.4,56.9,29.77,NNE,24,2.0,4.0,74,0.00,,,0.55,Wunderground v.1.15,2013-03-12 19:40:00,
2013-03-12 15:50:00,65.9,57.4,29.77,North,351,2.0,7.0,74,0.00,,,0.55,Wunderground v.1.15,2013-03-12 19:50:00,
2013-03-12 15:59:00,66.4,56.7,29.77,West,264,3.0,3.0,71,0.00,,,0.55,Wunderground v.1.15,2013-03-12 19:59:00,
2013-03-12 16:10:00,67.1,56.6,29.77,NNE,19,2.0,2.0,69,0.00,,,0.55,Wunderground v.1.15,2013-03-12 20:10:00,
2013-03-12 16:19:00,67.2,56.3,29.78,North,355,3.0,4.0,68,0.00,,,0.55,Wunderground v.1.15,2013-03-12 20:19:00,
2013-03-12 16:30:00,66.9,56.0,29.78,North,9,2.0,2.0,68,0.00,,,0.55,Wunderground v.1.15,2013-03-12 20:30:00,
2013-03-12 16:40:00,66.8,55.1,29.78,NW,316,3.0,3.0,66,0.00,,,0.55,Wunderground v.1.15,2013-03-12 20:40:00,
2013-03-12 16:49:00,67.0,54.0,29.78,SSW,207,3.0,3.0,63,0.00,,,0.55,Wunderground v.1.15,2013-03-12 20:49:00,
2013-03-12 17:00:00,67.4,53.9,29.78,SSW,202,2.0,3.0,62,0.00,,,0.55,Wunderground v.1.15,2013-03-12 21:00:00,
2013-03-12 17:10:00,67.6,53.7,29.79,NNW,336,2.0,2.0,61,0.00,,,0.55,Wunderground v.1.15,2013-03-12 21:10:00,
2013-03-12 17:20:00,67.6,53.7,29.79,NNE,19,2.0,2.0,61,0.00,,,0.55,Wunderground v.1.15,2013-03-12 21:20:00,
2013-03-12 17:30:00,67.4,53.0,29.79,WNW,292,2.0,2.0,60,0.00,,,0.55,Wunderground v.1.15,2013-03-12 21:30:00,
2013-03-12 17:40:00,67.0,52.2,29.79,NNE,22,2.0,2.0,59,0.00,,,0.55,Wunderground v.1.15,2013-03-12 21:40:00,
2013-03-12 17:49:00,66.8,51.5,29.80,North,360,1.0,2.0,58,0.00,,,0.55,Wunderground v.1.15,2013-03-12 21:49:00,
2013-03-12 18:00:00,66.4,50.7,29.80,West,272,2.0,2.0,57,0.00,,,0.55,Wunderground v.1.15,2013-03-12 22:00:00,
2013-03-12 18:09:00,66.4,49.2,29.80,NNE,23,2.0,2.0,54,0.00,,,0.55,Wunderground v.1.15,2013-03-12 22:09:00,
2013-03-12 18:20:00,66.3,49.6,29.81,WNW,289,1.0,2.0,55,0.00,,,0.55,Wunderground v.1.15,2013-03-12 22:20:00,
2013-03-12 18:30:00,65.7,48.1,29.82,North,355,2.0,4.0,53,0.00,,,0.55,Wunderground v.1.15,2013-03-12 22:30:00,
2013-03-12 18:40:00,64.4,45.9,29.82,ESE,106,2.0,2.0,51,0.00,,,0.55,Wunderground v.1.15,2013-03-12 22:40:00,
2013-03-12 18:50:00,63.4,44.9,29.82,North,351,1.0,1.0,51,0.00,,,0.55,Wunderground v.1.15,2013-03-12 22:50:00,
2013-03-12 19:00:00,62.5,43.1,29.83,North,355,2.0,2.0,49,0.00,,,0.55,Wunderground v.1.15,2013-03-12 23:00:00,
2013-03-12 19:10:00,61.4,41.0,29.84,North,11,1.0,1.0,47,0.00,,,0.55,Wunderground v.1.15,2013-03-12 23:10:00,
2013-03-12 19:20:00,60.5,40.2,29.84,NNE,15,1.0,1.0,47,0.00,,,0.55,Wunderground v.1.15,2013-03-12 23:20:00,
2013-03-12 19:29:00,59.7,40.0,29.84,NNE,15,0.0,0.0,48,0.00,,,0.55,Wunderground v.1.15,2013-03-12 23:29:00,
2013-03-12 19:40:00,58.8,39.7,29.85,NNE,15,0.0,0.0,49,0.00,,,0.55,Wunderground v.1.15,2013-03-12 23:40:00,
2013-03-12 19:50:00,57.4,39.4,29.86,NNE,15,0.0,0.0,51,0.00,,,0.55,Wunderground v.1.15,2013-03-12 23:50:00,
2013-03-12 19:59:00,56.2,41.2,29.86,NNE,15,0.0,0.0,57,0.00,,,0.55,Wunderground v.1.15,2013-03-12 23:59:00,
2013-03-12 20:10:00,54.9,41.3,29.87,NNE,15,0.0,0.0,60,0.00,,,0.55,Wunderground v.1.15,2013-03-13 00:10:00,
2013-03-12 20:20:00,53.7,40.6,29.88,NNE,15,0.0,0.0,61,0.00,,,0.55,Wunderground v.1.15,2013-03-13 00:20:00,
2013-03-12 20:30:00,53.1,40.0,29.89,NNE,15,0.0,0.0,61,0.00,,,0.55,Wunderground v.1.15,2013-03-13 00:30:00,
2013-03-12 20:40:00,53.2,39.2,29.90,North,11,1.0,1.0,59,0.00,,,0.55,Wunderground v.1.15,2013-03-13 00:40:00,
2013-03-12 20:49:00,53.6,38.7,29.90,NE,37,0.0,1.0,57,0.00,,,0.55,Wunderground v.1.15,2013-03-13 00:49:00,
2013-03-12 21:00:00,54.4,38.1,29.91,WNW,300,2.0,2.0,54,0.00,,,0.55,Wunderground v.1.15,2013-03-13 01:00:00,
2013-03-12 21:10:00,54.6,36.8,29.91,West,281,2.0,5.0,51,0.00,,,0.55,Wunderground v.1.15,2013-03-13 01:10:00,
2013-03-12 21:20:00,54.6,36.3,29.92,NNE,27,1.0,1.0,50,0.00,,,0.55,Wunderground v.1.15,2013-03-13 01:20:00,
2013-03-12 21:30:00,54.0,35.3,29.92,WNW,292,1.0,1.0,49,0.00,,,0.55,Wunderground v.1.15,2013-03-13 01:30:00,
2013-03-12 21:39:00,53.6,33.8,29.93,NNW,348,2.0,2.0,47,0.00,,,0.55,Wunderground v.1.15,2013-03-13 01:39:00,
2013-03-12 21:50:00,53.1,33.4,29.93,West,281,2.0,2.0,47,0.00,,,0.55,Wunderground v.1.15,2013-03-13 01:50:00,
2013-03-12 21:59:00,52.6,32.9,29.94,NNE,13,2.0,2.0,47,0.00,,,0.55,Wunderground v.1.15,2013-03-13 01:59:00,
2013-03-12 22:10:00,52.2,32.6,29.94,North,355,1.0,1.0,47,0.00,,,0.55,Wunderground v.1.15,2013-03-13 02:10:00,
2013-03-12 22:20:00,51.9,32.8,29.94,NNE,17,2.0,2.0,48,0.00,,,0.55,Wunderground v.1.15,2013-03-13 02:20:00,
2013-03-12 22:29:00,51.5,32.4,29.95,NNW,346,2.0,2.0,48,0.00,,,0.55,Wunderground v.1.15,2013-03-13 02:29:00,
2013-03-12 22:40:00,51.2,32.7,29.95,NE,49,2.0,2.0,49,0.00,,,0.55,Wunderground v.1.15,2013-03-13 02:40:00,
2013-03-12 22:50:00,50.7,32.7,29.96,NNW,345,1.0,3.0,50,0.00,,,0.55,Wunderground v.1.15,2013-03-13 02:50:00,
2013-03-12 23:00:00,50.3,32.8,29.96,NE,53,2.0,4.0,51,0.00,,,0.55,Wunderground v.1.15,2013-03-13 03:00:00,
2013-03-12 23:10:00,50.0,32.6,29.96,NNW,344,2.0,2.0,51,0.00,,,0.55,Wunderground v.1.15,2013-03-13 03:10:00,
2013-03-12 23:20:00,49.6,32.7,29.95,WNW,294,1.0,1.0,52,0.00,,,0.55,Wunderground v.1.15,2013-03-13 03:20:00,
2013-03-12 23:29:00,49.1,32.2,29.96,NNE,22,1.0,2.0,52,0.00,,,0.55,Wunderground v.1.15,2013-03-13 03:29:00,
2013-03-12 23:40:00,48.8,31.9,29.96,North,355,1.0,1.0,52,0.00,,,0.55,Wunderground v.1.15,2013-03-13 03:40:00,
2013-03-12 23:50:00,48.2,31.9,29.96,NNW,341,0.0,1.0,53,0.00,,,0.55,Wunderground v.1.15,2013-03-13 03:50:00,